Time;durP1;ratioP1;P1;durP2;ratioP2;P2;SDS_P1;SDS_P2;PMS_P1;PMS_P2;Temp;Humidity;BMP_temperature;BMP_pressure;BME280_temperature;BME280_humidity;BME280_pressure;Samples;Min_cycle;Max_cycle;Signal;HPM_P1;HPM_P2
2022/01/24 00:01:49;;;;;;;22.20;10.97;;;6.70;99.90;;;;;;5077652;28;20211;-62
2022/01/24 00:04:15;;;;;;;26.67;13.47;;;6.70;99.90;;;;;;5095317;28;20605;-62
2022/01/24 00:06:42;;;;;;;22.40;11.10;;;6.70;99.90;;;;;;5076952;28;20184;-62
2022/01/24 00:09:09;;;;;;;26.90;12.33;;;6.70;99.90;;;;;;5077321;28;20190;-62
2022/01/24 00:11:45;;;;;;;29.97;12.77;;;6.80;99.90;;;;;;5078970;28;20205;-62
2022/01/24 00:28:00;;;;;;;22.67;12.73;;;6.70;99.90;;;;;;5094284;28;20204;-61
2022/01/24 00:30:26;;;;;;;26.53;13.17;;;6.60;99.90;;;;;;5067623;28;20557;-61
2022/01/24 00:32:52;;;;;;;24.67;12.13;;;6.50;99.90;;;;;;5094271;28;20322;-61
2022/01/24 00:35:18;;;;;;;21.10;12.03;;;6.60;99.90;;;;;;5076723;28;20662;-61
2022/01/24 00:37:43;;;;;;;20.77;10.77;;;6.80;99.90;;;;;;5072315;28;20713;-61
2022/01/24 00:40:10;;;;;;;30.97;12.67;;;6.70;99.90;;;;;;5094544;28;20186;-61
2022/01/24 00:45:10;;;;;;;26.40;12.40;;;6.80;99.90;;;;;;5094572;28;20553;-61
2022/01/24 00:48:28;;;;;;;23.97;12.10;;;6.80;99.90;;;;;;5094906;28;20188;-61
2022/01/24 00:53:29;;;;;;;23.13;13.00;;;6.80;99.90;;;;;;5093079;28;20204;-63
2022/01/24 00:55:55;;;;;;;24.07;12.13;;;6.80;99.90;;;;;;5077794;28;20211;-61
2022/01/24 00:58:21;;;;;;;29.27;11.73;;;6.80;99.90;;;;;;5095032;28;20264;-61
2022/01/24 01:00:47;;;;;;;27.20;13.17;;;7.00;99.90;;;;;;5092895;28;20681;-62
2022/01/24 01:03:12;;;;;;;33.63;13.40;;;7.10;99.90;;;;;;5059368;28;20185;-62
2022/01/24 01:18:58;;;;;;;31.67;14.07;;;6.60;99.90;;;;;;5080178;28;20557;-61
2022/01/24 01:21:23;;;;;;;27.63;13.97;;;6.80;99.90;;;;;;5055928;28;20189;-60
2022/01/24 01:23:54;;;;;;;26.30;11.90;;;6.80;99.90;;;;;;5040595;28;20189;-61
2022/01/24 01:28:51;;;;;;;23.30;12.90;;;6.60;99.90;;;;;;5074295;28;21011;-62
2022/01/24 01:31:28;;;;;;;29.13;13.20;;;6.70;99.90;;;;;;5074177;28;20711;-61
2022/01/24 01:52:21;;;;;;;20.10;10.47;;;6.80;99.90;;;;;;5081800;28;20579;-61
2022/01/24 01:53:22;;;;;;;25.27;11.80;;;6.80;99.90;;;;;;5092903;28;20195;-60
2022/01/24 01:55:46;;;;;;;21.37;10.27;;;6.60;99.90;;;;;;5074418;28;20252;-61
2022/01/24 01:58:23;;;;;;;20.43;9.83;;;6.50;99.90;;;;;;5074486;28;20677;-60
2022/01/24 02:00:54;;;;;;;19.23;9.93;;;6.60;99.90;;;;;;5087799;28;20188;-61
2022/01/24 02:03:21;;;;;;;24.77;11.27;;;6.70;99.90;;;;;;5092190;28;20526;-61
2022/01/24 02:05:46;;;;;;;22.77;12.03;;;6.70;99.90;;;;;;5076840;28;20707;-61
2022/01/24 02:08:12;;;;;;;20.00;10.87;;;6.60;99.90;;;;;;5093121;28;20383;-61
2022/01/24 02:10:41;;;;;;;23.63;12.00;;;6.60;99.90;;;;;;5055483;28;20667;-61
2022/01/24 02:13:07;;;;;;;21.70;10.93;;;6.60;99.90;;;;;;5065609;28;20185;-60
2022/01/24 02:20:54;;;;;;;20.17;11.10;;;6.90;99.90;;;;;;5076520;28;20180;-61
2022/01/24 02:25:59;;;;;;;20.93;10.27;;;6.90;99.90;;;;;;5079187;28;20291;-61
2022/01/24 02:28:29;;;;;;;20.13;10.53;;;6.80;99.90;;;;;;5076338;28;20195;-61
2022/01/24 02:33:24;;;;;;;19.60;11.53;;;6.90;99.90;;;;;;5056545;28;20214;-61
2022/01/24 02:35:50;;;;;;;18.73;10.87;;;6.90;99.90;;;;;;5078947;28;20212;-61
2022/01/24 02:45:59;;;;;;;20.90;10.73;;;6.70;99.90;;;;;;5092925;28;20257;-66
2022/01/24 02:48:59;;;;;;;19.83;10.43;;;6.90;99.90;;;;;;5078421;28;20321;-61
2022/01/24 02:51:46;;;;;;;18.43;10.00;;;6.90;99.90;;;;;;5091480;28;20656;-61
2022/01/24 02:54:26;;;;;;;25.37;10.90;;;6.90;99.90;;;;;;5087678;28;20192;-61
2022/01/24 02:56:52;;;;;;;22.67;11.00;;;6.90;99.90;;;;;;5092156;28;20200;-61
2022/01/24 02:59:18;;;;;;;23.37;11.37;;;6.90;99.90;;;;;;5074775;28;20258;-61
2022/01/24 03:01:45;;;;;;;19.70;10.33;;;6.90;99.90;;;;;;5077578;28;20198;-62
2022/01/24 03:04:11;;;;;;;22.33;10.27;;;6.90;99.90;;;;;;5074513;28;20181;-63
2022/01/24 03:06:36;;;;;;;21.53;10.53;;;6.90;99.90;;;;;;5074530;28;20188;-61
2022/01/24 03:09:06;;;;;;;19.13;10.87;;;6.80;99.90;;;;;;5083292;28;20189;-61
2022/01/24 03:12:02;;;;;;;24.60;9.93;;;6.70;99.90;;;;;;5073068;28;20197;-62
2022/01/24 03:14:20;;;;;;;25.93;10.53;;;6.60;99.90;;;;;;5072623;28;20201;-63
2022/01/24 03:16:47;;;;;;;24.60;10.43;;;6.90;99.90;;;;;;5081209;28;20562;-62
2022/01/24 03:19:16;;;;;;;21.37;11.27;;;6.80;99.90;;;;;;5083219;28;20193;-62
2022/01/24 03:21:43;;;;;;;29.13;12.73;;;6.80;99.90;;;;;;5080239;28;20172;-63
2022/01/24 03:24:10;;;;;;;25.93;12.43;;;7.00;99.90;;;;;;5088225;28;20196;-61
2022/01/24 03:26:35;;;;;;;28.20;11.73;;;7.20;99.90;;;;;;5077446;28;20189;-61
2022/01/24 03:29:02;;;;;;;20.10;11.03;;;7.10;99.90;;;;;;5062189;28;20185;-62
2022/01/24 03:31:27;;;;;;;22.30;12.33;;;7.00;99.90;;;;;;5062694;28;20172;-62
2022/01/24 03:33:53;;;;;;;21.83;12.93;;;6.80;99.90;;;;;;5083046;28;20192;-61
2022/01/24 03:36:19;;;;;;;26.30;13.43;;;7.00;99.90;;;;;;5076510;28;20573;-61
2022/01/24 03:38:45;;;;;;;23.47;12.87;;;7.10;99.90;;;;;;5081032;28;20276;-61
2022/01/24 03:41:10;;;;;;;23.57;11.70;;;7.20;99.90;;;;;;5094256;28;20674;-61
2022/01/24 03:43:36;;;;;;;26.43;12.00;;;7.00;99.90;;;;;;5058722;28;20642;-61
2022/01/24 03:48:46;;;;;;;26.60;14.17;;;6.80;99.90;;;;;;5089975;28;20189;-61
2022/01/24 03:51:12;;;;;;;27.03;12.97;;;6.90;99.90;;;;;;5076847;28;20638;-62
2022/01/24 03:53:40;;;;;;;20.57;11.97;;;6.90;99.90;;;;;;5095691;28;20253;-61
2022/01/24 03:56:07;;;;;;;24.47;13.20;;;7.00;99.90;;;;;;5095360;28;20219;-61
2022/01/24 03:58:33;;;;;;;25.30;13.17;;;6.80;99.90;;;;;;5076745;28;20196;-61
2022/01/24 04:01:00;;;;;;;23.77;14.03;;;7.00;99.90;;;;;;5056733;28;20185;-61
2022/01/24 04:03:26;;;;;;;22.47;12.67;;;7.10;99.90;;;;;;5061847;28;20181;-61
2022/01/24 04:05:52;;;;;;;23.27;13.00;;;7.10;99.90;;;;;;5095328;28;20220;-62
2022/01/24 04:08:18;;;;;;;18.93;12.20;;;6.90;99.90;;;;;;5095221;28;20224;-61
2022/01/24 04:10:47;;;;;;;27.33;13.43;;;6.80;99.90;;;;;;5075950;28;20276;-62
2022/01/24 04:13:36;;;;;;;24.47;13.70;;;6.60;99.90;;;;;;5064721;28;20185;-61
2022/01/24 04:21:49;;;;;;;28.83;14.10;;;6.80;99.90;;;;;;5075612;28;20172;-65
2022/01/24 04:24:11;;;;;;;26.07;13.43;;;6.70;99.90;;;;;;5067402;28;20216;-63
2022/01/24 04:26:38;;;;;;;25.37;13.33;;;6.60;99.90;;;;;;5087494;28;20188;-61
2022/01/24 04:29:06;;;;;;;29.53;14.43;;;6.50;99.90;;;;;;5093739;28;20192;-62
2022/01/24 04:31:32;;;;;;;29.30;14.63;;;6.60;99.90;;;;;;5076021;28;20593;-61
2022/01/24 04:33:59;;;;;;;23.20;13.40;;;6.60;99.90;;;;;;5057558;28;20181;-61
2022/01/24 04:36:26;;;;;;;29.37;12.63;;;6.60;99.90;;;;;;5055890;28;20708;-61
2022/01/24 04:38:54;;;;;;;21.73;11.53;;;6.50;99.90;;;;;;5076121;28;20199;-61
2022/01/24 04:41:42;;;;;;;24.17;13.00;;;6.40;99.90;;;;;;5094542;28;20188;-62
2022/01/24 04:44:30;;;;;;;26.30;14.17;;;6.40;99.90;;;;;;5094675;28;20276;-62
2022/01/24 04:47:36;;;;;;;30.77;14.27;;;6.30;99.90;;;;;;5093262;28;20570;-62
2022/01/24 04:52:59;;;;;;;26.50;11.87;;;6.10;99.90;;;;;;5094815;28;20208;-62
2022/01/24 04:55:20;;;;;;;24.90;12.47;;;6.20;99.90;;;;;;5080465;28;20275;-62
2022/01/24 04:57:46;;;;;;;28.43;14.13;;;6.20;99.90;;;;;;5075092;28;20276;-62
2022/01/24 05:00:13;;;;;;;27.47;13.93;;;6.10;99.90;;;;;;5059352;28;20196;-62
2022/01/24 05:02:39;;;;;;;25.17;14.13;;;6.20;99.90;;;;;;5085862;28;20237;-61
2022/01/24 05:05:06;;;;;;;24.77;14.33;;;6.20;99.90;;;;;;5080660;28;20197;-62
2022/01/24 05:07:32;;;;;;;25.13;12.87;;;6.30;99.90;;;;;;5094419;28;20192;-61
2022/01/24 05:25:55;;;;;;;25.10;13.97;;;6.40;99.90;;;;;;5070901;28;20205;-65
2022/01/24 05:28:21;;;;;;;24.73;13.77;;;6.40;99.90;;;;;;5062916;28;20269;-64
2022/01/24 05:30:48;;;;;;;26.57;14.83;;;6.50;99.90;;;;;;5081962;28;20278;-67
2022/01/24 05:33:13;;;;;;;23.17;12.07;;;6.40;99.90;;;;;;5056028;28;20720;-64
2022/01/24 05:35:39;;;;;;;29.23;14.23;;;6.10;99.90;;;;;;5054086;28;20304;-67
2022/01/24 05:38:06;;;;;;;30.13;14.10;;;6.00;99.90;;;;;;5058610;28;20283;-65
2022/01/24 05:40:32;;;;;;;23.53;14.07;;;5.90;99.90;;;;;;5078513;28;20193;-63
2022/01/24 05:42:58;;;;;;;27.87;14.37;;;6.00;99.90;;;;;;5065686;28;20691;-62
2022/01/24 05:45:24;;;;;;;25.97;12.97;;;6.10;99.90;;;;;;5090193;28;20640;-63
2022/01/24 05:47:50;;;;;;;26.67;13.50;;;6.30;99.90;;;;;;5093104;28;20184;-64
2022/01/24 05:50:15;;;;;;;28.27;14.43;;;6.30;99.90;;;;;;5093293;28;20189;-64
2022/01/24 05:52:41;;;;;;;25.57;14.27;;;6.30;99.90;;;;;;5078752;28;20181;-64
2022/01/24 05:55:07;;;;;;;30.47;13.27;;;6.20;99.90;;;;;;5073798;28;20212;-64
2022/01/24 05:57:34;;;;;;;30.97;14.93;;;6.20;99.90;;;;;;5039352;28;20196;-64
2022/01/24 06:00:00;;;;;;;24.67;13.57;;;6.20;99.90;;;;;;5072888;28;20698;-64
2022/01/24 06:02:26;;;;;;;28.20;14.33;;;6.40;99.90;;;;;;5071801;28;20189;-66
2022/01/24 06:04:52;;;;;;;28.77;14.90;;;6.30;99.90;;;;;;5056298;28;20211;-64
2022/01/24 06:07:18;;;;;;;27.17;13.73;;;6.30;99.90;;;;;;5073707;28;20219;-65
2022/01/24 06:09:43;;;;;;;24.97;16.40;;;6.20;99.90;;;;;;5075194;28;20228;-64
2022/01/24 06:12:10;;;;;;;25.60;15.20;;;6.00;99.90;;;;;;5093643;28;20196;-64
2022/01/24 06:14:36;;;;;;;26.43;14.77;;;6.20;99.90;;;;;;5044919;28;20188;-64
2022/01/24 06:17:02;;;;;;;29.57;14.77;;;6.30;99.90;;;;;;5083921;28;20196;-64
2022/01/24 06:19:28;;;;;;;28.30;13.10;;;6.30;99.90;;;;;;5073900;28;20184;-63
2022/01/24 06:21:54;;;;;;;26.30;13.67;;;6.30;99.90;;;;;;5065938;28;20184;-65
2022/01/24 06:24:19;;;;;;;31.63;15.23;;;6.20;99.90;;;;;;5092782;28;20267;-65
2022/01/24 06:26:46;;;;;;;30.47;14.13;;;6.20;99.90;;;;;;5078046;28;20282;-64
2022/01/24 06:29:12;;;;;;;27.50;14.83;;;6.00;99.90;;;;;;5071616;28;20197;-65
2022/01/24 06:31:38;;;;;;;29.57;16.23;;;5.90;99.90;;;;;;5073690;28;20726;-63
2022/01/24 06:34:05;;;;;;;30.80;15.33;;;6.10;99.90;;;;;;5061291;28;20630;-64
2022/01/24 06:36:31;;;;;;;28.77;14.43;;;6.10;99.90;;;;;;5086688;28;20204;-64
2022/01/24 06:38:57;;;;;;;30.67;15.17;;;5.90;99.90;;;;;;5056267;28;20196;-64
2022/01/24 06:41:28;;;;;;;26.73;14.17;;;6.10;99.90;;;;;;5074337;28;20196;-64
2022/01/24 06:43:54;;;;;;;27.07;13.40;;;6.10;99.90;;;;;;5073054;28;20185;-64
2022/01/24 06:46:20;;;;;;;26.03;14.90;;;6.10;99.90;;;;;;5072891;28;20523;-65
2022/01/24 06:48:45;;;;;;;24.57;13.70;;;6.00;99.90;;;;;;5092991;28;20574;-65
2022/01/24 06:51:11;;;;;;;29.40;13.83;;;6.00;99.90;;;;;;5056179;28;20550;-64
2022/01/24 06:53:38;;;;;;;29.37;15.20;;;6.00;99.90;;;;;;5091885;28;20191;-65
2022/01/24 06:56:05;;;;;;;26.23;15.07;;;6.10;99.90;;;;;;5055223;28;20780;-65
2022/01/24 06:58:32;;;;;;;26.03;14.00;;;6.10;99.90;;;;;;5081790;28;20188;-64
2022/01/24 07:00:58;;;;;;;25.07;13.67;;;6.20;99.90;;;;;;5065501;28;20544;-64
2022/01/24 07:03:24;;;;;;;31.23;14.03;;;6.20;99.90;;;;;;5087482;28;20579;-65
2022/01/24 07:05:50;;;;;;;28.27;14.10;;;6.10;99.90;;;;;;5088709;28;20245;-65
2022/01/24 07:08:16;;;;;;;27.83;14.43;;;6.00;99.90;;;;;;5075456;28;20215;-64
2022/01/24 07:10:41;;;;;;;29.57;15.73;;;6.00;99.90;;;;;;5092003;28;20302;-65
2022/01/24 07:13:08;;;;;;;23.77;14.50;;;6.00;99.90;;;;;;5084750;28;20275;-64
2022/01/24 07:15:39;;;;;;;27.50;15.33;;;6.00;99.90;;;;;;5051900;28;20678;-64
2022/01/24 07:20:35;;;;;;;25.67;14.83;;;6.00;99.90;;;;;;5087603;28;20197;-64
2022/01/24 07:23:04;;;;;;;37.20;16.57;;;6.10;99.90;;;;;;5061217;28;20184;-65
2022/01/24 07:25:29;;;;;;;34.13;15.63;;;5.90;99.90;;;;;;5087961;28;20282;-64
2022/01/24 07:27:55;;;;;;;28.27;15.17;;;6.00;99.90;;;;;;5054930;28;20653;-64
2022/01/24 07:30:21;;;;;;;30.33;16.87;;;6.00;99.90;;;;;;5077491;28;20715;-64
2022/01/24 07:32:47;;;;;;;30.27;15.03;;;6.00;99.90;;;;;;5073914;28;20642;-64
2022/01/24 07:35:12;;;;;;;29.70;16.10;;;6.00;99.90;;;;;;5091931;28;20696;-64
2022/01/24 07:37:38;;;;;;;26.47;14.77;;;6.00;99.90;;;;;;5057463;28;20192;-66
2022/01/24 07:40:09;;;;;;;33.63;14.90;;;6.00;99.90;;;;;;5091803;28;20191;-64
2022/01/24 07:45:22;;;;;;;30.07;14.60;;;5.90;99.90;;;;;;5091724;28;20203;-64
2022/01/24 07:47:48;;;;;;;30.67;15.60;;;6.00;99.90;;;;;;5090803;28;20776;-65
2022/01/24 07:50:20;;;;;;;32.13;16.60;;;6.00;99.90;;;;;;5062281;28;20186;-65
2022/01/24 07:52:46;;;;;;;32.07;15.43;;;5.90;99.90;;;;;;5083855;28;20539;-64
2022/01/24 07:55:12;;;;;;;27.77;15.27;;;5.90;99.90;;;;;;5078740;28;20215;-64
2022/01/24 07:57:38;;;;;;;31.03;16.97;;;5.90;99.90;;;;;;5073702;28;20177;-65
2022/01/24 08:00:05;;;;;;;33.60;17.03;;;6.10;99.90;;;;;;5091564;28;20176;-64
2022/01/24 08:02:31;;;;;;;29.90;16.03;;;6.20;99.90;;;;;;5075796;28;20661;-64
2022/01/24 08:04:57;;;;;;;29.73;14.63;;;6.20;99.90;;;;;;5076939;28;20211;-64
2022/01/24 08:07:23;;;;;;;32.83;16.40;;;6.30;99.90;;;;;;5095301;28;20630;-64
2022/01/24 08:09:48;;;;;;;30.33;14.60;;;6.00;99.90;;;;;;5060805;28;20188;-64
2022/01/24 08:12:14;;;;;;;31.63;14.87;;;6.00;99.90;;;;;;5084597;28;20265;-65
2022/01/24 08:14:39;;;;;;;28.17;13.80;;;6.00;99.90;;;;;;5094789;28;20192;-64
2022/01/24 08:17:05;;;;;;;30.10;14.77;;;6.20;99.90;;;;;;5090819;28;20668;-64
2022/01/24 08:19:33;;;;;;;34.20;14.70;;;6.40;99.90;;;;;;5066617;28;20192;-64
2022/01/24 08:21:59;;;;;;;30.57;13.40;;;6.30;99.90;;;;;;5073766;28;20196;-64
2022/01/24 08:24:25;;;;;;;34.60;15.07;;;6.40;99.90;;;;;;5074144;28;20507;-64
2022/01/24 08:26:50;;;;;;;29.53;14.03;;;6.30;99.90;;;;;;5064498;28;20193;-64
2022/01/24 08:29:16;;;;;;;30.40;14.53;;;6.20;99.90;;;;;;5077145;28;20249;-64
2022/01/24 08:31:42;;;;;;;28.53;14.27;;;6.30;99.90;;;;;;5086453;28;20193;-65
2022/01/24 08:34:07;;;;;;;29.50;14.60;;;6.40;99.90;;;;;;5076499;28;20713;-65
2022/01/24 08:36:34;;;;;;;24.87;13.07;;;6.20;99.90;;;;;;5057655;28;20677;-64
2022/01/24 08:39:07;;;;;;;29.43;14.70;;;6.30;99.90;;;;;;5084639;28;20322;-65
2022/01/24 08:41:49;;;;;;;27.20;13.73;;;6.20;99.90;;;;;;5085319;28;20268;-64
2022/01/24 08:46:45;;;;;;;26.93;14.37;;;6.40;99.90;;;;;;5086167;28;20246;-65
2022/01/24 08:49:11;;;;;;;31.73;15.80;;;6.30;99.90;;;;;;5053330;28;20189;-64
2022/01/24 08:51:37;;;;;;;26.50;13.97;;;6.30;99.90;;;;;;5083096;28;20188;-65
2022/01/24 08:54:04;;;;;;;31.07;13.73;;;6.40;99.90;;;;;;5061899;28;20193;-65
2022/01/24 08:56:29;;;;;;;26.17;13.70;;;6.50;99.90;;;;;;5056181;28;20712;-65
2022/01/24 08:58:55;;;;;;;28.37;14.40;;;6.50;99.90;;;;;;5042171;28;20185;-65
2022/01/24 09:01:21;;;;;;;27.07;14.27;;;6.60;99.90;;;;;;5093413;28;20189;-65
2022/01/24 09:03:47;;;;;;;27.50;13.37;;;6.40;99.90;;;;;;5077316;28;20222;-65
2022/01/24 09:06:16;;;;;;;29.17;13.27;;;6.10;99.90;;;;;;5094297;28;20706;-64
2022/01/24 09:08:42;;;;;;;30.23;14.33;;;6.00;99.90;;;;;;5094548;28;20184;-64
2022/01/24 09:11:08;;;;;;;30.50;14.47;;;6.00;99.90;;;;;;5064610;28;20208;-65
2022/01/24 09:13:34;;;;;;;29.43;15.60;;;5.80;99.90;;;;;;5070232;28;20188;-64
2022/01/24 09:16:00;;;;;;;31.63;16.23;;;5.90;99.90;;;;;;5076124;28;20285;-65
2022/01/24 09:18:28;;;;;;;28.00;14.37;;;5.70;99.90;;;;;;5087247;28;20197;-65
2022/01/24 09:20:53;;;;;;;24.80;14.70;;;6.00;99.90;;;;;;5074612;28;20185;-65
2022/01/24 09:23:19;;;;;;;32.93;15.03;;;6.00;99.90;;;;;;5086584;28;20658;-65
2022/01/24 09:25:45;;;;;;;29.80;14.57;;;6.10;99.90;;;;;;5093982;28;20200;-65
2022/01/24 09:28:11;;;;;;;31.67;14.37;;;6.10;99.90;;;;;;5093713;28;20196;-65
2022/01/24 09:30:36;;;;;;;36.07;15.60;;;6.20;99.90;;;;;;5069229;28;20185;-65
2022/01/24 09:33:02;;;;;;;35.70;15.63;;;6.20;99.90;;;;;;5053182;28;20550;-65
2022/01/24 09:35:29;;;;;;;28.37;14.37;;;6.20;99.90;;;;;;5074859;28;20204;-65
2022/01/24 09:37:55;;;;;;;29.83;15.50;;;6.10;99.90;;;;;;5068915;28;20281;-65
2022/01/24 09:40:22;;;;;;;29.77;16.00;;;6.20;99.90;;;;;;5074333;28;20196;-65
2022/01/24 09:42:48;;;;;;;33.40;16.50;;;6.40;99.90;;;;;;5052078;28;20196;-65
2022/01/24 09:45:15;;;;;;;29.93;15.30;;;6.60;99.90;;;;;;5072483;28;20215;-64
2022/01/24 09:47:43;;;;;;;28.03;16.03;;;6.40;99.90;;;;;;5076146;28;20273;-65
2022/01/24 09:50:13;;;;;;;27.60;15.10;;;6.40;99.90;;;;;;5073977;28;20645;-65
2022/01/24 09:52:40;;;;;;;33.70;16.57;;;6.20;99.90;;;;;;5075449;28;20216;-65
2022/01/24 09:55:07;;;;;;;34.90;15.10;;;6.30;99.90;;;;;;5074482;28;20220;-65
2022/01/24 09:57:33;;;;;;;30.40;15.77;;;6.30;99.90;;;;;;5074334;28;20192;-65
2022/01/24 09:59:59;;;;;;;29.67;16.13;;;6.20;99.90;;;;;;5057758;28;20641;-66
2022/01/24 10:02:26;;;;;;;31.23;13.70;;;5.90;99.90;;;;;;5063198;28;20192;-66
2022/01/24 10:05:15;;;;;;;26.97;15.27;;;5.80;99.90;;;;;;5081825;28;20279;-65
2022/01/24 10:07:48;;;;;;;29.67;15.00;;;6.10;99.90;;;;;;5093256;28;20192;-65
2022/01/24 10:10:16;;;;;;;33.97;14.23;;;6.30;99.90;;;;;;5093410;28;20219;-64
2022/01/24 10:17:55;;;;;;;25.63;14.40;;;6.20;99.90;;;;;;5077135;28;20269;-64
2022/01/24 10:20:43;;;;;;;23.30;13.47;;;6.20;99.90;;;;;;5092746;28;20192;-64
2022/01/24 10:23:24;;;;;;;29.13;15.47;;;6.00;99.90;;;;;;5076629;28;20286;-65
2022/01/24 10:25:55;;;;;;;30.90;14.50;;;5.90;99.90;;;;;;5073547;28;20185;-64
2022/01/24 10:28:43;;;;;;;29.73;15.07;;;6.10;99.90;;;;;;5055946;28;20185;-64
2022/01/24 10:31:28;;;;;;;29.63;14.77;;;6.20;99.90;;;;;;5069574;28;20711;-64
2022/01/24 10:34:05;;;;;;;34.67;15.83;;;6.30;99.90;;;;;;5090930;28;20180;-64
2022/01/24 10:36:37;;;;;;;29.13;14.73;;;6.20;99.90;;;;;;5075308;28;20228;-64
2022/01/24 10:39:27;;;;;;;33.63;16.23;;;6.40;99.90;;;;;;5073729;28;20264;-64
2022/01/24 10:45:11;;;;;;;31.23;14.93;;;6.50;99.90;;;;;;5080503;28;20555;-65
2022/01/24 10:47:44;;;;;;;31.67;16.07;;;6.30;99.90;;;;;;5091364;28;20637;-65
2022/01/24 10:50:10;;;;;;;25.20;13.93;;;6.30;99.90;;;;;;5086158;28;20541;-65
2022/01/24 10:52:36;;;;;;;26.37;14.00;;;6.30;99.90;;;;;;5063351;28;20193;-64
2022/01/24 10:55:27;;;;;;;26.10;13.73;;;6.10;99.90;;;;;;5057769;28;20177;-64
2022/01/24 10:58:18;;;;;;;26.73;14.40;;;6.20;99.90;;;;;;5074033;28;20184;-66
2022/01/24 11:00:45;;;;;;;28.13;13.27;;;6.30;99.90;;;;;;5083185;28;20181;-64
2022/01/24 11:03:17;;;;;;;26.07;12.27;;;6.10;99.90;;;;;;5086754;28;20181;-64
2022/01/24 11:05:43;;;;;;;30.20;15.17;;;6.00;99.90;;;;;;5061020;28;20195;-64
2022/01/24 11:08:21;;;;;;;27.07;12.97;;;6.20;99.90;;;;;;5081934;28;20181;-64
2022/01/24 11:10:49;;;;;;;30.70;14.80;;;6.30;99.90;;;;;;5091313;28;20633;-64
2022/01/24 11:13:19;;;;;;;24.80;13.67;;;6.30;99.90;;;;;;5088756;28;20969;-64
2022/01/24 11:15:55;;;;;;;27.57;13.83;;;6.40;99.90;;;;;;5087643;28;20247;-64
2022/01/24 11:18:22;;;;;;;28.70;14.37;;;6.30;99.90;;;;;;5084571;28;20185;-64
2022/01/24 11:20:49;;;;;;;26.33;15.40;;;6.30;99.90;;;;;;5086904;28;20180;-65
2022/01/24 11:23:20;;;;;;;24.90;13.37;;;6.30;99.90;;;;;;5074540;28;20261;-65
2022/01/24 11:25:49;;;;;;;25.70;15.27;;;6.50;99.90;;;;;;5058427;28;20199;-65
2022/01/24 11:28:15;;;;;;;30.83;15.77;;;6.60;99.90;;;;;;5091864;28;20197;-65
2022/01/24 11:31:12;;;;;;;31.83;16.03;;;6.40;99.90;;;;;;5092290;28;20185;-64
2022/01/24 11:33:41;;;;;;;31.50;14.60;;;6.50;99.90;;;;;;5059855;28;20530;-65
2022/01/24 11:36:09;;;;;;;32.60;13.97;;;6.60;99.90;;;;;;5072490;28;20684;-65
2022/01/24 11:38:38;;;;;;;25.13;13.30;;;6.50;99.90;;;;;;5082370;28;20205;-64
2022/01/24 11:41:07;;;;;;;29.47;13.10;;;6.20;99.90;;;;;;5095842;28;20185;-65
2022/01/24 11:43:41;;;;;;;25.67;13.33;;;6.20;99.90;;;;;;5096022;28;20181;-65
2022/01/24 11:46:49;;;;;;;32.67;16.57;;;6.30;99.90;;;;;;5079759;28;20241;-65
2022/01/24 11:49:19;;;;;;;24.00;12.30;;;6.50;99.90;;;;;;5042053;28;20197;-65
2022/01/24 11:51:49;;;;;;;28.70;13.77;;;6.40;99.90;;;;;;5077671;28;20180;-66
2022/01/24 11:55:01;;;;;;;24.73;13.07;;;6.20;99.90;;;;;;5073325;28;20723;-65
2022/01/24 11:57:39;;;;;;;24.33;13.23;;;6.10;99.90;;;;;;5087349;28;20642;-65
2022/01/24 12:00:05;;;;;;;27.23;13.23;;;6.10;99.90;;;;;;5095794;28;20672;-65
2022/01/24 12:02:57;;;;;;;33.80;14.77;;;6.60;99.90;;;;;;5065658;28;20191;-65
2022/01/24 12:05:42;;;;;;;27.00;13.53;;;6.70;99.90;;;;;;5069651;28;20183;-66
2022/01/24 12:08:12;;;;;;;28.63;14.60;;;6.80;99.90;;;;;;5069080;28;20657;-63
2022/01/24 12:10:44;;;;;;;26.70;13.40;;;7.00;99.90;;;;;;5064367;28;20631;-64
2022/01/24 12:13:20;;;;;;;26.80;13.63;;;7.20;99.90;;;;;;5093650;28;20184;-66
2022/01/24 12:15:49;;;;;;;24.40;12.97;;;7.20;99.90;;;;;;5091179;28;20207;-64
2022/01/24 12:18:26;;;;;;;23.30;13.13;;;7.10;99.90;;;;;;5062908;28;20199;-64
2022/01/24 12:21:13;;;;;;;24.73;14.33;;;7.10;99.90;;;;;;5081190;28;20273;-64
2022/01/24 12:23:40;;;;;;;22.57;12.50;;;7.00;99.90;;;;;;5093277;28;20187;-64
2022/01/24 12:26:09;;;;;;;26.90;12.33;;;7.10;99.90;;;;;;5095287;28;20188;-64
2022/01/24 12:28:50;;;;;;;25.87;12.77;;;7.10;99.90;;;;;;5093875;28;20189;-65
2022/01/24 12:31:29;;;;;;;23.83;12.03;;;7.20;99.90;;;;;;5080077;28;20642;-65
2022/01/24 12:33:54;;;;;;;27.33;13.73;;;7.50;99.90;;;;;;5080149;28;20172;-65
2022/01/24 12:36:48;;;;;;;28.93;14.60;;;7.40;99.90;;;;;;5077000;28;20216;-64
2022/01/24 12:39:20;;;;;;;26.57;12.37;;;7.20;99.90;;;;;;5094491;28;20275;-65
2022/01/24 12:41:51;;;;;;;25.77;13.10;;;7.30;99.90;;;;;;5085259;28;20189;-65
2022/01/24 12:47:13;;;;;;;21.37;11.67;;;7.50;99.90;;;;;;5075628;28;20223;-65
2022/01/24 12:49:41;;;;;;;22.50;12.90;;;7.70;99.90;;;;;;5057066;28;20181;-65
2022/01/24 12:52:10;;;;;;;24.17;12.40;;;8.00;99.90;;;;;;5080605;28;20544;-65
2022/01/24 12:54:40;;;;;;;26.33;14.37;;;8.00;99.90;;;;;;5079007;28;20182;-65
2022/01/24 12:57:11;;;;;;;26.17;13.47;;;7.90;99.90;;;;;;5090323;28;20299;-65
2022/01/24 12:59:38;;;;;;;27.83;13.07;;;7.80;99.90;;;;;;5094710;28;20199;-65
2022/01/24 13:02:06;;;;;;;29.17;14.27;;;7.50;99.90;;;;;;5063610;28;20650;-65
2022/01/24 13:04:37;;;;;;;26.93;14.20;;;7.70;99.90;;;;;;5040380;28;20211;-64
2022/01/24 13:07:08;;;;;;;24.17;12.47;;;7.70;99.90;;;;;;5089561;28;20255;-65
2022/01/24 13:09:35;;;;;;;24.97;12.93;;;7.80;99.90;;;;;;5074517;28;20943;-65
2022/01/24 13:12:07;;;;;;;23.57;12.73;;;7.80;99.90;;;;;;5088380;28;20258;-65
2022/01/24 13:25:29;;;;;;;27.90;13.80;;;7.90;99.90;;;;;;5094453;28;20192;-64
2022/01/24 13:27:56;;;;;;;26.07;12.53;;;7.80;99.90;;;;;;5058026;28;20650;-65
2022/01/24 13:30:24;;;;;;;30.80;15.33;;;7.60;99.90;;;;;;5075919;28;20273;-65
2022/01/24 13:32:58;;;;;;;25.70;12.83;;;7.40;99.90;;;;;;5081051;28;20212;-64
2022/01/24 13:35:41;;;;;;;26.87;14.50;;;7.50;99.90;;;;;;5093578;28;20295;-65
2022/01/24 13:38:10;;;;;;;26.23;12.50;;;7.90;99.90;;;;;;5081796;28;20676;-68
2022/01/24 13:40:40;;;;;;;29.73;15.63;;;8.10;99.90;;;;;;5093161;28;20544;-65
2022/01/24 13:43:09;;;;;;;28.37;15.43;;;8.10;99.90;;;;;;5093586;28;20184;-64
2022/01/24 13:45:40;;;;;;;24.30;13.30;;;8.00;99.90;;;;;;5072281;28;20223;-65
2022/01/24 13:48:17;;;;;;;28.07;13.23;;;7.90;99.90;;;;;;5056201;28;20330;-65
2022/01/24 13:50:57;;;;;;;30.80;12.93;;;7.80;99.90;;;;;;5074246;28;20173;-65
2022/01/24 13:53:34;;;;;;;26.17;12.93;;;7.70;99.90;;;;;;5083452;28;20180;-64
2022/01/24 13:56:14;;;;;;;24.27;12.40;;;7.90;99.90;;;;;;5078340;28;20608;-65
2022/01/24 13:58:40;;;;;;;27.73;13.87;;;7.80;99.90;;;;;;5058295;28;20200;-65
2022/01/24 14:01:05;;;;;;;26.90;15.40;;;7.70;99.90;;;;;;5055208;28;20182;-65
2022/01/24 14:03:31;;;;;;;24.80;13.07;;;7.60;99.90;;;;;;5074557;28;20195;-65
2022/01/24 14:06:17;;;;;;;31.33;13.13;;;7.70;99.90;;;;;;5058819;28;20193;-66
2022/01/24 14:08:44;;;;;;;30.17;14.10;;;8.00;99.90;;;;;;5056376;28;20284;-65
2022/01/24 14:11:15;;;;;;;25.30;12.23;;;7.80;99.90;;;;;;5052921;28;20201;-65
2022/01/24 14:13:48;;;;;;;27.30;13.60;;;7.40;99.90;;;;;;5075422;28;20180;-65
2022/01/24 14:16:35;;;;;;;26.37;12.17;;;7.50;99.90;;;;;;5092928;28;20205;-65
2022/01/24 14:19:02;;;;;;;27.00;13.23;;;7.50;99.90;;;;;;5091810;28;20254;-65
2022/01/24 14:21:28;;;;;;;20.60;12.80;;;7.40;99.90;;;;;;5072731;28;20193;-65
2022/01/24 14:23:55;;;;;;;23.20;12.77;;;7.30;99.90;;;;;;5065386;28;20271;-65
2022/01/24 14:26:23;;;;;;;28.03;13.30;;;7.40;99.90;;;;;;5086380;28;20182;-66
2022/01/24 14:29:04;;;;;;;22.63;11.40;;;7.40;99.90;;;;;;5050542;28;20280;-65
2022/01/24 14:31:30;;;;;;;24.90;13.00;;;7.60;99.90;;;;;;5073426;28;20262;-65
2022/01/24 14:34:04;;;;;;;25.67;13.37;;;7.50;99.90;;;;;;5082291;28;20273;-66
2022/01/24 14:36:30;;;;;;;22.87;12.63;;;7.60;99.90;;;;;;5092386;28;20231;-66
2022/01/24 14:39:02;;;;;;;27.10;13.67;;;7.50;99.90;;;;;;5092612;28;20657;-66
2022/01/24 14:41:35;;;;;;;26.90;12.40;;;7.30;99.90;;;;;;5074511;28;20279;-65
2022/01/24 14:46:48;;;;;;;27.23;13.60;;;7.80;99.90;;;;;;5078012;28;20219;-66
2022/01/24 14:49:22;;;;;;;24.43;13.00;;;7.80;99.90;;;;;;5057974;28;20552;-66
2022/01/24 14:51:48;;;;;;;22.23;12.40;;;7.60;99.90;;;;;;5081596;28;20185;-66
2022/01/24 14:54:22;;;;;;;21.73;12.50;;;7.30;99.90;;;;;;5056845;28;20196;-65
2022/01/24 14:56:50;;;;;;;22.63;12.77;;;7.40;99.90;;;;;;5092070;28;20642;-65
2022/01/24 14:59:15;;;;;;;21.17;12.37;;;7.60;99.90;;;;;;5089393;28;20261;-66
2022/01/24 15:01:41;;;;;;;23.40;12.40;;;7.60;99.90;;;;;;5056078;28;20713;-65